Monday, February 18, 2019, 5:43 AM EST
Back to Local

KEWR, Newark International Airport

Location: Elizabeth, NJ, United States Lat: 40.683
Local Time: 5:43 AM EST (10:43 GMT) Lon: -74.167
Time Zone: US/Eastern Elev: 16 ft

Show me the last for .
Show Decoded

2019-02-18 04:51 METAR KEWR 180951Z 05006KT 3SM -RA BR OVC004 01/01 A2981 RMK AO2 SLP094 P0001
                 T00110006 =
2019-02-18 03:51 METAR KEWR 180851Z 08005KT 4SM -RA BR OVC004 01/01 A2985 RMK AO2 SLP106 P0001
                 60002 T00110006 58024 =
2019-02-18 02:51 METAR KEWR 180751Z 02003KT 3SM -RA BR BKN003 OVC006 02/01 A2989 RMK AO2 SLP121
                 P0001 T00170011 =
2019-02-18 02:37 METAR KEWR 180737Z 08004KT 3SM -RA BR OVC004 02/01 A2987 RMK AO2 P0001 T00170011
                 =
2019-02-18 01:51 METAR KEWR 180651Z VRB03KT 4SM -RA BR OVC006 02/01 A2990 RMK AO2 SLP125 P0000
                 T00170006 =
2019-02-18 01:14 METAR KEWR 180614Z 02004KT 8SM -RA BKN007 OVC014 02/01 A2994 RMK AO2 P0000
                 T00170006 =
2019-02-18 00:51 METAR KEWR 180551Z 10004KT 10SM -RA SCT007 BKN016 OVC028 02/00 A2992 RMK AO2
                 PRESFR SLP131 931000 P0000 60005 T00170000 10017 20011 58025 =
2019-02-18 00:25 METAR KEWR 180525Z 11003KT 10SM -RA FEW008 SCT016 OVC028 02/00 A2994 RMK AO2
                 P0000 T00170000 =
2019-02-17 23:51 METAR KEWR 180451Z 00000KT 6SM R04R/2800VP6000FT -RA BR SCT015 OVC026 02/00
                 A2996 RMK AO2 PLE19 SLP143 P0001 T00170000 400221056 =
2019-02-17 23:19 METAR KEWR 180419Z 00000KT 10SM -RA FEW010 SCT015 OVC026 02/00 A2998 RMK AO2
                 PLE19 P0000 T00170000 =
2019-02-17 23:03 METAR KEWR 180403Z 15003KT 10SM -RAPL FEW010 BKN014 OVC036 02/00 A2996 RMK AO2
                 P0000 T00170000 =
2019-02-17 22:51 METAR KEWR 180351Z 00000KT 8SM -RAPL SCT018 OVC042 01/M01 A2998 RMK AO2 PLE19B41
                 SLP153 P0004 T00111006 =
2019-02-17 22:41 METAR KEWR 180341Z 14004KT 9SM -RAPL FEW020 OVC042 01/M01 A2996 RMK AO2 PLE19B41
                 P0003 T00111006 =
2019-02-17 22:19 METAR KEWR 180319Z 15005KT 10SM -RA FEW022 BKN045 OVC070 02/M01 A2998 RMK AO2
                 PLE19 P0002 T00171011 =
2019-02-17 21:51 METAR KEWR 180251Z 16004KT 10SM -RAPL SCT025 OVC048 02/M02 A2999 RMK AO2
                 PLB06E27B48 PRESFR SLP156 P0000 60000 T00171017 55018 =
2019-02-17 21:48 METAR KEWR 180248Z 16004KT 10SM -RAPL SCT025 OVC048 02/M02 A3000 RMK AO2
                 PLB06E27B48 P0000 =
2019-02-17 21:27 METAR KEWR 180227Z 17004KT 10SM -RA FEW020 OVC048 02/M02 A3001 RMK AO2 PLB06E27
                 PRESRR P0000 T00171022 =
2019-02-17 21:06 METAR KEWR 180206Z 16005KT 10SM -RAPL FEW020 OVC045 02/M03 A2999 RMK AO2 PLB06
                 P0000 T00171028 =
2019-02-17 20:51 METAR KEWR 180151Z VRB05KT 10SM -RA FEW020 OVC050 02/M03 A2999 RMK AO2 RAB46
                 SLP153 P0000 T00171033 =
2019-02-17 19:51 METAR KEWR 180051Z 14004KT 10SM FEW025 OVC055 01/M04 A3003 RMK AO2 PRESFR SLP167
                 T00111039 =
2019-02-17 18:51 METAR KEWR 172351Z 14005KT 10SM FEW025 OVC055 01/M04 A3005 RMK AO2 SLP174
                 T00111044 10022 20011 50001 =
2019-02-17 17:51 METAR KEWR 172251Z 15007KT 10SM BKN055 OVC200 01/M06 A3006 RMK AO2 SLP177
                 T00111056 =
2019-02-17 16:51 METAR KEWR 172151Z 15006KT 10SM FEW045 FEW100 BKN180 BKN250 01/M07 A3006 RMK AO2
                 SLP177 T00111072 =
2019-02-17 15:51 METAR KEWR 172051Z VRB04KT 10SM FEW035 FEW100 SCT180 BKN250 02/M08 A3004 RMK AO2
                 SLP173 T00171078 56040 =
2019-02-17 14:51 METAR KEWR 171951Z 17008KT 10SM FEW040 SCT100 BKN180 BKN240 02/M09 A3007 RMK AO2
                 SLP182 T00221089 =
2019-02-17 13:51 METAR KEWR 171851Z 17005KT 10SM FEW040 FEW090 BKN180 BKN230 02/M09 A3011 RMK AO2
                 SLP197 T00221094 =
2019-02-17 12:51 METAR KEWR 171751Z 20005KT 10SM FEW040 FEW090 SCT180 BKN230 02/M09 A3016 RMK AO2
                 SLP213 T00221094 10022 21056 53007 =
2019-02-17 11:51 METAR KEWR 171651Z 00000KT 10SM FEW035 FEW090 SCT180 SCT250 01/M10 A3011 RMK AO2
                 SLP195 T00111100 =
2019-02-17 10:51 METAR KEWR 171551Z VRB04KT 10SM FEW035 FEW090 FEW180 SCT250 01/M09 A3016 RMK AO2
                 SLP212 T00061094 =
2019-02-17 09:51 METAR KEWR 171451Z 03011KT 10SM FEW090 FEW180 SCT250 M01/M10 A3014 RMK AO2
                 SLP206 T10061100 50005 =
2019-02-17 08:51 METAR KEWR 171351Z 36007KT 10SM FEW180 SCT250 M02/M10 A3020 RMK AO2 SLP224
                 T10171100 =
2019-02-17 07:51 METAR KEWR 171251Z 02009KT 10SM FEW180 FEW250 M03/M09 A3015 RMK AO2 SLP209
                 T10281094 =
2019-02-17 06:51 METAR KEWR 171151Z 01005KT 10SM FEW250 M05/M10 A3013 RMK AO2 SLP201 T10501100
                 11011 21050 53013 =
2019-02-17 05:51 METAR KEWR 171051Z 02009KT 10SM FEW250 M04/M10 A3009 RMK AO2 SLP188 T10391100 =

Support USWX by starting your Amazon purchase here.